Terminal Aerodrome Forecast
Issued by NWS

Home | Current Version | Previous Version | Text Only | Print | Product List | Glossary On
Versions: 1 2 3 4 5 6 7 8 9 10 11 12 13 14 15 16
000
FTUS41 KBTV 011300 AAA
TAFSLK
TAF AMD
KSLK 011313Z 0113/0212 23008KT P6SM BKN020
     FM020000 VRB03KT P6SM BKN200
     FM020600 00000KT 1SM BR BKN005=

USA.gov is the U.S. government's official web portal to all federal, state and local government web resources and services.